Terminal Aerodrome Forecast
Issued by NWS Cleveland, OH

Home | Current Version | Previous Version | Graphics & Text | Print | Product List | Glossary On
Versions: 1 2 3 4 5 6 7 8 9 10 11 12 13 14 15 16 17 18 19
000
FTUS41 KCLE 241926 AAA
TAFYNG
TAF AMD
KYNG 241926Z 2419/2518 12014G22KT P6SM SKC
     FM242100 12012G20KT P6SM SCT100 OVC250
     FM250000 12012KT P6SM SCT050 OVC100
     FM250200 12012KT P6SM SCT025 OVC050
     FM250800 11008KT P6SM SCT015 OVC025
      TEMPO 2510/2514 BKN015
     FM251400 12007KT P6SM OVC025=

USA.gov is the U.S. government's official web portal to all federal, state and local government web resources and services.